Time;durP1;ratioP1;P1;durP2;ratioP2;P2;SDS_P1;SDS_P2;PMS_P1;PMS_P2;Temp;Humidity;BMP_temperature;BMP_pressure;BME280_temperature;BME280_humidity;BME280_pressure;Samples;Min_cycle;Max_cycle;Signal;HPM_P1;HPM_P2
2023/03/19 00:01:05;;;;;;;0.20;0.20;;;10.00;99.90;;;;;;4971934;28;20276;-58
2023/03/19 00:03:32;;;;;;;0.20;0.20;;;10.00;99.90;;;;;;4972220;28;20190;-58
2023/03/19 00:05:57;;;;;;;0.10;0.10;;;10.00;99.90;;;;;;4971529;28;20188;-58
2023/03/19 00:08:23;;;;;;;0.10;0.10;;;9.90;99.90;;;;;;4971724;28;20529;-58
2023/03/19 00:10:49;;;;;;;0.20;0.20;;;9.90;99.90;;;;;;4971545;28;20541;-58
2023/03/19 00:13:14;;;;;;;0.10;0.10;;;9.90;99.90;;;;;;4971585;28;20509;-59
2023/03/19 00:15:40;;;;;;;0.22;0.22;;;9.80;99.90;;;;;;4951939;28;20195;-58
2023/03/19 00:18:07;;;;;;;0.00;0.00;;;9.80;99.90;;;;;;4971564;28;20224;-58
2023/03/19 00:20:33;;;;;;;0.00;0.00;;;9.80;99.90;;;;;;4971757;28;20188;-58
2023/03/19 00:22:59;;;;;;;0.05;0.05;;;9.80;99.90;;;;;;4971616;28;20343;-58
2023/03/19 00:25:25;;;;;;;0.00;0.00;;;9.80;99.90;;;;;;4971333;28;20818;-58
2023/03/19 00:27:53;;;;;;;0.00;0.00;;;9.80;99.90;;;;;;4971165;28;20172;-58
2023/03/19 00:30:19;;;;;;;0.00;0.00;;;9.70;99.90;;;;;;4971465;28;20192;-58
2023/03/19 00:32:44;;;;;;;0.00;0.00;;;9.80;99.90;;;;;;4969957;28;20187;-58
2023/03/19 00:35:10;;;;;;;0.00;0.00;;;9.80;99.90;;;;;;4971664;28;20274;-58
2023/03/19 00:37:36;;;;;;;0.00;0.00;;;9.80;99.90;;;;;;4971346;28;20180;-58
2023/03/19 00:40:03;;;;;;;0.00;0.00;;;9.80;99.90;;;;;;4949068;28;20200;-58
2023/03/19 00:42:29;;;;;;;0.00;0.00;;;9.80;99.90;;;;;;4970558;28;20176;-58
2023/03/19 00:44:54;;;;;;;0.00;0.00;;;9.80;99.90;;;;;;4984802;28;20188;-58
2023/03/19 00:47:21;;;;;;;0.00;0.00;;;9.80;99.90;;;;;;4971265;28;20180;-59
2023/03/19 00:49:47;;;;;;;0.00;0.00;;;9.80;99.90;;;;;;4971369;28;20187;-59
2023/03/19 00:52:12;;;;;;;0.13;0.13;;;9.70;99.90;;;;;;4971151;28;20552;-59
2023/03/19 00:54:38;;;;;;;0.00;0.00;;;9.80;99.90;;;;;;4970980;28;20187;-58
2023/03/19 00:57:03;;;;;;;0.00;0.00;;;9.80;99.90;;;;;;4971280;28;20259;-58
2023/03/19 00:59:29;;;;;;;0.20;0.20;;;9.80;99.90;;;;;;4970203;28;20578;-58
2023/03/19 01:01:55;;;;;;;0.43;0.43;;;9.80;99.90;;;;;;4971103;28;20180;-59
2023/03/19 01:04:20;;;;;;;1.00;0.88;;;9.70;99.90;;;;;;4971259;28;20180;-58
2023/03/19 01:06:46;;;;;;;0.00;0.00;;;9.80;99.90;;;;;;4971411;28;20203;-58
2023/03/19 01:09:11;;;;;;;0.05;0.05;;;9.80;99.90;;;;;;4970881;28;20199;-58
2023/03/19 01:11:37;;;;;;;0.00;0.00;;;9.70;99.90;;;;;;4971565;28;20247;-58
2023/03/19 01:14:02;;;;;;;0.45;0.45;;;9.70;99.90;;;;;;4963207;28;20651;-58
2023/03/19 01:16:28;;;;;;;1.08;0.98;;;9.80;99.90;;;;;;4967983;28;20235;-58
2023/03/19 01:18:54;;;;;;;2.65;1.85;;;9.70;99.90;;;;;;4953656;28;20243;-58
2023/03/19 01:21:20;;;;;;;0.00;0.00;;;9.70;99.90;;;;;;4971431;28;20243;-58
2023/03/19 01:23:46;;;;;;;0.00;0.00;;;9.80;99.90;;;;;;4971361;28;20247;-58
2023/03/19 01:26:12;;;;;;;0.00;0.00;;;9.80;99.90;;;;;;4962803;28;20196;-58
2023/03/19 01:28:38;;;;;;;0.88;0.88;;;9.80;99.90;;;;;;4972158;28;20243;-58
2023/03/19 01:31:07;;;;;;;0.00;0.00;;;9.80;99.90;;;;;;4974978;28;20180;-59
2023/03/19 01:33:33;;;;;;;0.10;0.10;;;9.80;99.90;;;;;;4974805;28;20181;-58
2023/03/19 01:36:02;;;;;;;0.00;0.00;;;9.80;99.90;;;;;;4974824;28;20188;-58
2023/03/19 01:38:28;;;;;;;0.10;0.10;;;9.80;99.90;;;;;;4974602;28;20226;-58
2023/03/19 01:40:54;;;;;;;0.00;0.00;;;9.80;99.90;;;;;;4974460;28;20550;-58
2023/03/19 01:43:22;;;;;;;0.00;0.00;;;9.90;99.90;;;;;;4979480;28;20194;-58
2023/03/19 01:45:55;;;;;;;4.53;0.57;;;9.90;99.90;;;;;;4983732;28;20180;-58
2023/03/19 01:48:41;;;;;;;5.18;0.57;;;9.80;99.90;;;;;;4974731;28;20188;-58
2023/03/19 01:51:10;;;;;;;0.40;0.40;;;9.80;99.90;;;;;;4960114;28;20188;-58
2023/03/19 01:53:39;;;;;;;1.10;1.10;;;9.80;99.90;;;;;;4974384;28;20195;-58
2023/03/19 01:56:14;;;;;;;0.20;0.20;;;9.90;99.90;;;;;;4974380;28;20184;-58
2023/03/19 01:58:42;;;;;;;0.45;0.45;;;9.90;99.90;;;;;;4974159;28;20337;-59
2023/03/19 02:01:08;;;;;;;0.00;0.00;;;9.90;99.90;;;;;;4974227;28;20192;-58
2023/03/19 02:03:36;;;;;;;0.10;0.10;;;9.90;99.90;;;;;;4973990;28;20178;-58
2023/03/19 02:06:01;;;;;;;0.80;0.80;;;9.90;99.90;;;;;;4974179;28;20515;-58
2023/03/19 02:08:28;;;;;;;0.00;0.00;;;9.90;99.90;;;;;;4973958;28;20175;-58
2023/03/19 02:10:55;;;;;;;0.00;0.00;;;9.80;99.90;;;;;;4973653;28;20215;-58
2023/03/19 02:13:22;;;;;;;0.00;0.00;;;9.90;99.90;;;;;;4974338;28;20169;-58
2023/03/19 02:15:49;;;;;;;0.05;0.05;;;9.80;99.90;;;;;;4974271;28;20180;-58
2023/03/19 02:18:15;;;;;;;0.43;0.43;;;9.90;99.90;;;;;;4973809;28;20251;-58
2023/03/19 02:20:59;;;;;;;0.00;0.00;;;9.90;99.90;;;;;;4974104;28;20184;-58
2023/03/19 02:23:38;;;;;;;0.00;0.00;;;9.90;99.90;;;;;;4974273;28;20184;-58
2023/03/19 02:26:15;;;;;;;0.22;0.22;;;9.90;99.90;;;;;;4974086;28;20340;-58
2023/03/19 02:28:43;;;;;;;0.10;0.10;;;10.00;99.90;;;;;;4973916;28;20585;-58
2023/03/19 02:31:09;;;;;;;0.00;0.00;;;10.00;99.90;;;;;;4973679;28;20553;-58
2023/03/19 02:33:35;;;;;;;0.00;0.00;;;10.00;99.90;;;;;;4973845;28;20180;-58
2023/03/19 02:36:03;;;;;;;0.00;0.00;;;10.00;99.90;;;;;;4973424;28;20238;-58
2023/03/19 02:38:32;;;;;;;0.00;0.00;;;10.00;99.90;;;;;;4972548;28;20207;-58
2023/03/19 02:41:07;;;;;;;0.00;0.00;;;10.00;99.90;;;;;;4970254;28;20749;-58
2023/03/19 02:43:35;;;;;;;0.20;0.20;;;10.00;99.90;;;;;;4974750;28;20191;-58
2023/03/19 02:46:02;;;;;;;0.08;0.08;;;10.00;99.90;;;;;;4973485;28;20669;-58
2023/03/19 02:48:28;;;;;;;0.00;0.00;;;10.00;99.90;;;;;;4973716;28;20203;-59
2023/03/19 02:50:54;;;;;;;0.00;0.00;;;10.00;99.90;;;;;;4973583;28;20192;-58
2023/03/19 02:53:20;;;;;;;0.00;0.00;;;10.10;99.90;;;;;;4973260;28;20235;-58
2023/03/19 02:55:45;;;;;;;0.00;0.00;;;10.10;99.90;;;;;;4973323;28;20184;-58
2023/03/19 02:58:12;;;;;;;0.32;0.32;;;10.10;99.90;;;;;;4970635;28;20215;-58
2023/03/19 03:00:38;;;;;;;0.00;0.00;;;10.10;99.90;;;;;;4973071;28;20231;-58
2023/03/19 03:03:06;;;;;;;0.00;0.00;;;10.10;99.90;;;;;;4972805;28;20199;-58
2023/03/19 03:05:32;;;;;;;0.00;0.00;;;10.10;99.90;;;;;;4973191;28;20599;-58
2023/03/19 03:07:58;;;;;;;0.03;0.03;;;10.10;99.90;;;;;;4973058;28;20243;-58
2023/03/19 03:10:24;;;;;;;0.00;0.00;;;10.00;99.90;;;;;;4972917;28;20168;-58
2023/03/19 03:12:50;;;;;;;0.00;0.00;;;10.00;99.90;;;;;;4972703;28;20214;-58
2023/03/19 03:15:16;;;;;;;0.00;0.00;;;10.00;99.90;;;;;;4972503;28;20743;-58
2023/03/19 03:17:44;;;;;;;0.00;0.00;;;10.00;99.90;;;;;;4971106;28;20338;-58
2023/03/19 03:20:10;;;;;;;0.00;0.00;;;9.90;99.90;;;;;;4972930;28;20192;-58
2023/03/19 03:22:38;;;;;;;0.10;0.10;;;9.90;99.90;;;;;;4973044;28;20271;-58
2023/03/19 03:25:04;;;;;;;0.00;0.00;;;9.90;99.90;;;;;;4972745;28;20654;-58
2023/03/19 03:27:30;;;;;;;0.00;0.00;;;9.80;99.90;;;;;;4972796;28;20595;-58
2023/03/19 03:29:56;;;;;;;0.00;0.00;;;9.80;99.90;;;;;;4972664;28;20188;-58
2023/03/19 03:32:22;;;;;;;0.00;0.00;;;9.80;99.90;;;;;;4972696;28;20231;-58
2023/03/19 03:34:47;;;;;;;0.55;0.20;;;9.70;99.90;;;;;;4972679;28;20529;-58
2023/03/19 03:37:13;;;;;;;0.00;0.00;;;9.70;99.90;;;;;;4972313;28;20188;-58
2023/03/19 03:39:39;;;;;;;0.10;0.10;;;9.70;99.90;;;;;;4972587;28;20220;-58
2023/03/19 03:42:05;;;;;;;0.10;0.10;;;9.70;99.90;;;;;;4972441;28;20176;-58
2023/03/19 03:44:30;;;;;;;0.10;0.10;;;9.70;99.90;;;;;;4975229;28;20180;-58
2023/03/19 03:46:56;;;;;;;0.17;0.17;;;9.70;99.90;;;;;;4963803;28;20184;-59
2023/03/19 03:49:22;;;;;;;0.00;0.00;;;9.70;99.90;;;;;;4971189;28;20515;-58
2023/03/19 03:51:48;;;;;;;0.00;0.00;;;9.60;99.90;;;;;;4971939;28;20181;-58
2023/03/19 03:54:14;;;;;;;0.00;0.00;;;9.70;99.90;;;;;;4971672;28;20187;-58
2023/03/19 03:56:39;;;;;;;0.00;0.00;;;9.70;99.90;;;;;;4972325;28;20216;-58
2023/03/19 03:59:06;;;;;;;0.00;0.00;;;9.70;99.90;;;;;;4971160;28;20243;-58
2023/03/19 04:01:32;;;;;;;0.00;0.00;;;9.70;99.90;;;;;;4954557;28;20189;-58
2023/03/19 04:03:58;;;;;;;0.00;0.00;;;9.70;99.90;;;;;;4972093;28;20173;-58
2023/03/19 04:06:25;;;;;;;0.00;0.00;;;9.70;99.90;;;;;;4971976;28;20188;-58
2023/03/19 04:08:51;;;;;;;0.00;0.00;;;9.70;99.90;;;;;;4971908;28;20184;-58
2023/03/19 04:11:17;;;;;;;0.00;0.00;;;9.70;99.90;;;;;;4971674;28;20745;-58
2023/03/19 04:13:42;;;;;;;0.00;0.00;;;9.60;99.90;;;;;;4971647;28;20219;-58
2023/03/19 04:16:09;;;;;;;0.00;0.00;;;9.60;99.90;;;;;;4971665;28;20203;-58
2023/03/19 04:18:36;;;;;;;0.00;0.00;;;9.60;99.90;;;;;;4971181;28;20223;-58
2023/03/19 04:21:03;;;;;;;0.00;0.00;;;9.60;99.90;;;;;;4971663;28;20298;-58
2023/03/19 04:23:29;;;;;;;0.15;0.15;;;9.70;99.90;;;;;;4971136;28;20179;-58
2023/03/19 04:26:02;;;;;;;0.00;0.00;;;9.70;99.90;;;;;;4971722;28;20242;-58
2023/03/19 04:28:28;;;;;;;0.00;0.00;;;9.70;99.90;;;;;;4971654;28;20184;-58
2023/03/19 04:31:06;;;;;;;0.00;0.00;;;9.70;99.90;;;;;;4970968;28;20263;-58
2023/03/19 04:33:33;;;;;;;0.00;0.00;;;9.70;99.90;;;;;;4971254;28;20187;-58
2023/03/19 04:35:59;;;;;;;0.00;0.00;;;9.70;99.90;;;;;;4971370;28;20207;-58
2023/03/19 04:38:26;;;;;;;0.00;0.00;;;9.70;99.90;;;;;;4970927;28;20215;-58
2023/03/19 04:40:52;;;;;;;0.00;0.00;;;9.80;99.90;;;;;;4971273;28;20184;-58
2023/03/19 04:43:18;;;;;;;0.00;0.00;;;9.70;99.90;;;;;;4976105;28;20278;-58
2023/03/19 04:45:43;;;;;;;0.55;0.55;;;9.80;99.90;;;;;;4971103;28;20180;-58
2023/03/19 04:48:09;;;;;;;0.10;0.10;;;9.80;99.90;;;;;;4971201;28;20180;-58
2023/03/19 04:50:35;;;;;;;0.00;0.00;;;9.80;99.90;;;;;;4971181;28;20590;-58
2023/03/19 04:53:01;;;;;;;0.00;0.00;;;9.80;99.90;;;;;;4970902;28;20219;-58
2023/03/19 04:55:27;;;;;;;0.00;0.00;;;9.80;99.90;;;;;;4971216;28;20184;-58
2023/03/19 04:57:52;;;;;;;0.30;0.25;;;9.80;99.90;;;;;;4970755;28;20191;-58
2023/03/19 05:00:19;;;;;;;0.00;0.00;;;9.70;99.90;;;;;;4970977;28;20698;-59
2023/03/19 05:02:45;;;;;;;0.00;0.00;;;9.70;99.90;;;;;;4973155;28;20544;-58
2023/03/19 05:05:12;;;;;;;0.30;0.30;;;9.70;99.90;;;;;;4975161;28;20187;-58
2023/03/19 05:07:38;;;;;;;0.00;0.00;;;9.70;99.90;;;;;;4975503;28;20187;-59
2023/03/19 05:10:05;;;;;;;0.00;0.00;;;9.70;99.90;;;;;;4974274;28;20192;-59
2023/03/19 05:12:30;;;;;;;0.00;0.00;;;9.70;99.90;;;;;;4975150;28;20184;-58
2023/03/19 05:14:57;;;;;;;0.00;0.00;;;9.70;99.90;;;;;;4974612;28;20196;-59
2023/03/19 05:17:22;;;;;;;0.00;0.00;;;9.70;99.90;;;;;;4974454;28;20358;-59
2023/03/19 05:19:48;;;;;;;0.00;0.00;;;9.60;99.90;;;;;;4974555;28;20306;-59
2023/03/19 05:22:13;;;;;;;0.22;0.22;;;9.60;99.90;;;;;;4974583;28;20186;-58
2023/03/19 05:24:39;;;;;;;0.10;0.10;;;9.60;99.90;;;;;;4974771;28;20191;-59
2023/03/19 05:27:04;;;;;;;0.00;0.00;;;9.70;99.90;;;;;;4974501;28;20180;-59
2023/03/19 05:29:30;;;;;;;0.00;0.00;;;9.70;99.90;;;;;;4988788;28;20261;-59
2023/03/19 05:31:56;;;;;;;0.00;0.00;;;9.70;99.90;;;;;;4976504;28;20176;-59
2023/03/19 05:34:21;;;;;;;0.00;0.00;;;9.70;99.90;;;;;;4974980;28;20713;-60
2023/03/19 05:36:47;;;;;;;0.10;0.10;;;9.60;99.90;;;;;;4974696;28;20188;-59
2023/03/19 05:39:12;;;;;;;0.00;0.00;;;9.60;99.90;;;;;;4973935;28;20255;-59
2023/03/19 05:41:38;;;;;;;0.00;0.00;;;9.60;99.90;;;;;;4975280;28;20607;-59
2023/03/19 05:44:03;;;;;;;0.00;0.00;;;9.60;99.90;;;;;;4983556;28;20226;-59
2023/03/19 05:46:29;;;;;;;0.00;0.00;;;9.60;99.90;;;;;;4974634;28;20173;-59
2023/03/19 05:48:55;;;;;;;0.00;0.00;;;9.60;99.90;;;;;;4974471;28;20195;-59
2023/03/19 05:51:20;;;;;;;0.00;0.00;;;9.70;99.90;;;;;;4974276;28;20267;-59
2023/03/19 05:53:46;;;;;;;0.00;0.00;;;9.70;99.90;;;;;;4974294;28;20188;-59
2023/03/19 05:56:11;;;;;;;0.00;0.00;;;9.70;99.90;;;;;;4974575;28;20194;-58
2023/03/19 05:58:37;;;;;;;0.00;0.00;;;9.70;99.90;;;;;;4974191;28;20560;-58
2023/03/19 06:01:03;;;;;;;0.00;0.00;;;9.70;99.90;;;;;;4974041;28;20718;-58
2023/03/19 06:03:28;;;;;;;0.00;0.00;;;9.70;99.90;;;;;;4974444;28;20673;-58
2023/03/19 06:05:54;;;;;;;0.00;0.00;;;9.70;99.90;;;;;;4973883;28;20181;-58
2023/03/19 06:08:20;;;;;;;0.00;0.00;;;9.70;99.90;;;;;;4974186;28;20195;-58
2023/03/19 06:10:46;;;;;;;0.00;0.00;;;9.70;99.90;;;;;;4973845;28;20191;-58
2023/03/19 06:13:11;;;;;;;0.00;0.00;;;9.70;99.90;;;;;;4972760;28;20188;-58
2023/03/19 06:15:37;;;;;;;0.00;0.00;;;9.80;99.90;;;;;;4985902;28;20195;-58
2023/03/19 06:18:03;;;;;;;0.00;0.00;;;9.80;99.90;;;;;;4976769;28;20223;-58
2023/03/19 06:20:28;;;;;;;0.00;0.00;;;9.90;99.90;;;;;;4978224;28;20650;-58
2023/03/19 06:22:54;;;;;;;0.00;0.00;;;9.90;99.90;;;;;;4974232;28;20188;-58
2023/03/19 06:25:20;;;;;;;0.00;0.00;;;9.90;99.90;;;;;;4972678;28;20196;-59
2023/03/19 06:27:46;;;;;;;0.00;0.00;;;10.00;99.90;;;;;;4962984;28;20173;-58
2023/03/19 06:30:12;;;;;;;0.00;0.00;;;10.00;99.90;;;;;;4960109;28;20194;-58
2023/03/19 06:32:38;;;;;;;0.00;0.00;;;10.00;99.90;;;;;;4975715;28;20639;-58
2023/03/19 06:35:05;;;;;;;0.25;0.25;;;10.00;99.90;;;;;;4974102;28;20234;-58
2023/03/19 06:37:31;;;;;;;0.00;0.00;;;10.00;99.90;;;;;;4974396;28;20188;-58
2023/03/19 06:39:56;;;;;;;0.00;0.00;;;10.10;99.90;;;;;;4973912;28;20675;-58
2023/03/19 06:42:22;;;;;;;0.00;0.00;;;10.10;99.90;;;;;;4973926;28;20195;-58
2023/03/19 06:44:48;;;;;;;0.00;0.00;;;10.10;99.90;;;;;;4984657;28;20244;-58
2023/03/19 06:47:14;;;;;;;0.00;0.00;;;10.10;99.90;;;;;;4971910;28;20176;-58
2023/03/19 06:49:40;;;;;;;0.15;0.15;;;10.10;99.90;;;;;;4973587;28;20275;-58
2023/03/19 06:52:05;;;;;;;0.20;0.20;;;10.10;99.90;;;;;;4973565;28;20710;-58
2023/03/19 06:54:31;;;;;;;0.00;0.00;;;10.20;99.90;;;;;;4973796;28;20188;-58
2023/03/19 06:56:56;;;;;;;0.00;0.00;;;10.20;99.90;;;;;;4973094;28;20180;-58
2023/03/19 06:59:22;;;;;;;0.00;0.00;;;10.20;99.90;;;;;;4972154;28;20289;-57
2023/03/19 07:01:48;;;;;;;0.10;0.10;;;10.30;99.90;;;;;;4972273;28;20181;-57
2023/03/19 07:04:13;;;;;;;0.00;0.00;;;10.40;99.90;;;;;;4972408;28;20341;-57
2023/03/19 07:06:39;;;;;;;0.28;0.28;;;10.40;99.90;;;;;;4972939;28;20517;-57
2023/03/19 07:09:04;;;;;;;0.00;0.00;;;10.60;99.90;;;;;;4972201;28;20176;-57
2023/03/19 07:11:30;;;;;;;0.00;0.00;;;10.70;99.90;;;;;;4972992;28;20180;-57
2023/03/19 07:13:56;;;;;;;0.00;0.00;;;10.80;99.90;;;;;;4972887;28;20184;-58
2023/03/19 07:16:21;;;;;;;0.00;0.00;;;10.90;99.90;;;;;;4976709;28;20654;-57
2023/03/19 07:18:47;;;;;;;0.00;0.00;;;11.00;99.90;;;;;;4972274;28;20242;-58
2023/03/19 07:21:13;;;;;;;0.00;0.00;;;11.10;99.90;;;;;;4971899;28;20187;-57
2023/03/19 07:23:39;;;;;;;0.10;0.10;;;11.20;99.90;;;;;;4971533;28;20188;-58
2023/03/19 07:26:04;;;;;;;0.22;0.22;;;11.30;99.90;;;;;;4972324;28;20184;-59
2023/03/19 07:28:30;;;;;;;0.00;0.00;;;11.40;99.90;;;;;;4972119;28;20185;-57
2023/03/19 07:30:56;;;;;;;0.00;0.00;;;11.60;99.90;;;;;;4972701;28;20234;-58
2023/03/19 07:33:21;;;;;;;0.00;0.00;;;11.70;99.90;;;;;;4972447;28;20279;-58
2023/03/19 07:35:47;;;;;;;0.05;0.05;;;11.90;99.90;;;;;;4972483;28;20248;-59
2023/03/19 07:38:13;;;;;;;0.00;0.00;;;12.10;99.90;;;;;;4971993;28;20587;-61
2023/03/19 07:40:39;;;;;;;0.00;0.00;;;12.30;99.90;;;;;;4971708;28;20215;-58
2023/03/19 07:43:05;;;;;;;0.00;0.00;;;12.50;99.90;;;;;;4974062;28;20254;-58
2023/03/19 07:45:31;;;;;;;0.17;0.17;;;12.60;99.90;;;;;;4972443;28;20296;-58
2023/03/19 07:47:56;;;;;;;0.00;0.00;;;12.80;99.90;;;;;;4971796;28;20192;-58
2023/03/19 07:50:22;;;;;;;0.00;0.00;;;13.00;99.90;;;;;;4971402;28;20222;-58
2023/03/19 07:52:50;;;;;;;0.20;0.20;;;13.20;99.90;;;;;;4972123;28;20173;-58
2023/03/19 07:55:15;;;;;;;0.00;0.00;;;13.40;99.90;;;;;;4971587;28;20251;-60
2023/03/19 07:57:41;;;;;;;0.00;0.00;;;13.60;99.90;;;;;;4972285;28;20184;-59
2023/03/19 08:00:09;;;;;;;0.00;0.00;;;13.80;99.90;;;;;;4971395;28;20219;-59
2023/03/19 08:02:35;;;;;;;0.00;0.00;;;13.90;99.90;;;;;;4972184;28;20188;-59
2023/03/19 08:05:03;;;;;;;0.00;0.00;;;14.00;99.90;;;;;;4967649;28;20181;-59
2023/03/19 08:07:32;;;;;;;0.00;0.00;;;14.10;99.90;;;;;;4972467;28;20188;-60
2023/03/19 08:09:58;;;;;;;0.10;0.10;;;14.30;99.90;;;;;;4972011;28;20191;-59
2023/03/19 08:12:24;;;;;;;0.00;0.00;;;14.30;99.90;;;;;;4972648;28;20184;-59
2023/03/19 08:14:50;;;;;;;0.00;0.00;;;14.40;99.90;;;;;;4972368;28;20266;-59
2023/03/19 08:17:16;;;;;;;0.00;0.00;;;14.50;99.90;;;;;;4971822;28;20327;-59
2023/03/19 08:19:41;;;;;;;0.30;0.10;;;14.60;99.90;;;;;;4972172;28;20566;-59
2023/03/19 08:22:08;;;;;;;0.00;0.00;;;14.80;99.90;;;;;;4972394;28;20663;-59
2023/03/19 08:24:33;;;;;;;0.00;0.00;;;15.00;99.90;;;;;;4972088;28;20326;-59
2023/03/19 08:26:59;;;;;;;0.00;0.00;;;15.10;99.90;;;;;;4971712;28;20271;-59
2023/03/19 08:29:26;;;;;;;0.00;0.00;;;15.40;99.90;;;;;;4972158;28;20242;-60
2023/03/19 08:31:52;;;;;;;0.00;0.00;;;15.80;99.90;;;;;;4971777;28;20180;-58
2023/03/19 08:34:18;;;;;;;0.00;0.00;;;16.60;99.90;;;;;;4971205;28;20191;-59
2023/03/19 08:36:43;;;;;;;0.00;0.00;;;17.40;98.60;;;;;;4971337;28;20188;-59
2023/03/19 08:39:09;;;;;;;0.00;0.00;;;18.20;97.20;;;;;;4971361;28;20683;-59
2023/03/19 08:41:35;;;;;;;0.00;0.00;;;19.00;94.90;;;;;;4971558;28;20314;-59
2023/03/19 08:44:00;;;;;;;0.00;0.00;;;19.80;93.10;;;;;;4976355;28;20184;-59
2023/03/19 08:46:26;;;;;;;0.00;0.00;;;20.40;90.90;;;;;;4971137;28;20704;-59
2023/03/19 08:48:52;;;;;;;0.00;0.00;;;20.40;83.30;;;;;;4971097;28;20719;-57
2023/03/19 08:51:18;;;;;;;0.00;0.00;;;20.10;81.80;;;;;;4971127;28;20184;-59
2023/03/19 08:53:44;;;;;;;0.00;0.00;;;19.70;80.80;;;;;;4971238;28;20184;-59
2023/03/19 08:56:09;;;;;;;0.00;0.00;;;19.40;80.20;;;;;;4972079;28;20168;-59
2023/03/19 08:58:35;;;;;;;0.00;0.00;;;19.10;80.50;;;;;;4971990;28;20204;-59
2023/03/19 09:01:12;;;;;;;0.00;0.00;;;18.90;80.40;;;;;;4972217;28;20184;-59
2023/03/19 09:03:39;;;;;;;0.00;0.00;;;18.80;82.00;;;;;;4972194;28;20188;-59
2023/03/19 09:06:07;;;;;;;0.00;0.00;;;18.90;83.60;;;;;;4972085;28;20168;-59
2023/03/19 09:08:34;;;;;;;0.00;0.00;;;19.30;83.90;;;;;;4972179;28;20188;-59
2023/03/19 09:10:59;;;;;;;0.00;0.00;;;19.90;82.60;;;;;;4971741;28;20599;-58
2023/03/19 09:13:25;;;;;;;0.00;0.00;;;20.50;79.70;;;;;;4972121;28;20235;-57
2023/03/19 09:15:51;;;;;;;0.00;0.00;;;21.00;76.70;;;;;;4972046;28;20592;-58
2023/03/19 09:18:19;;;;;;;0.00;0.00;;;21.50;75.20;;;;;;4971519;28;20267;-58
2023/03/19 09:20:45;;;;;;;0.00;0.00;;;21.90;70.90;;;;;;4971617;28;20193;-58
2023/03/19 09:23:11;;;;;;;0.00;0.00;;;22.30;68.70;;;;;;4952663;28;20225;-58
2023/03/19 09:25:37;;;;;;;0.00;0.00;;;22.40;66.90;;;;;;4952719;28;20181;-58
2023/03/19 09:28:02;;;;;;;0.00;0.00;;;22.20;63.30;;;;;;4935458;28;20264;-58
2023/03/19 09:30:28;;;;;;;0.00;0.00;;;21.90;62.30;;;;;;4952636;28;20208;-58
2023/03/19 09:32:54;;;;;;;0.00;0.00;;;21.90;62.80;;;;;;4952755;28;20722;-58
2023/03/19 09:35:19;;;;;;;0.00;0.00;;;21.80;61.40;;;;;;4952482;28;20204;-58
2023/03/19 09:37:46;;;;;;;0.00;0.00;;;21.60;59.60;;;;;;4952621;28;20188;-59
2023/03/19 09:40:23;;;;;;;0.00;0.00;;;21.60;59.50;;;;;;4952495;28;20208;-58
2023/03/19 09:43:10;;;;;;;0.00;0.00;;;21.70;60.40;;;;;;4954485;28;20169;-59
2023/03/19 09:45:36;;;;;;;0.00;0.00;;;21.50;60.90;;;;;;4991260;28;20180;-58
2023/03/19 09:48:06;;;;;;;0.10;0.10;;;21.40;59.50;;;;;;4991999;28;20171;-58
2023/03/19 09:50:33;;;;;;;0.00;0.00;;;21.50;61.00;;;;;;4995445;28;20175;-59
2023/03/19 09:53:15;;;;;;;0.00;0.00;;;21.70;60.90;;;;;;4994615;28;20260;-59
2023/03/19 09:55:52;;;;;;;0.00;0.00;;;21.70;60.90;;;;;;4994723;28;20673;-59
2023/03/19 09:58:29;;;;;;;0.00;0.00;;;21.60;58.10;;;;;;4994406;28;20207;-59
2023/03/19 10:00:55;;;;;;;0.10;0.10;;;21.70;58.20;;;;;;4994573;28;20206;-59
2023/03/19 10:03:49;;;;;;;0.00;0.00;;;21.80;58.00;;;;;;4994537;28;20655;-58
2023/03/19 10:06:32;;;;;;;0.00;0.00;;;21.60;55.40;;;;;;4994280;28;20242;-59
2023/03/19 10:09:10;;;;;;;0.00;0.00;;;20.90;57.00;;;;;;4994331;28;20646;-59
2023/03/19 10:11:39;;;;;;;0.00;0.00;;;20.60;58.60;;;;;;4980111;28;20183;-59
2023/03/19 10:14:42;;;;;;;0.00;0.00;;;20.70;59.50;;;;;;4974825;28;20176;-59
2023/03/19 10:17:16;;;;;;;0.00;0.00;;;20.90;59.00;;;;;;4974525;28;20195;-59
2023/03/19 10:19:48;;;;;;;0.00;0.00;;;21.00;59.10;;;;;;4974744;28;20219;-59
2023/03/19 10:22:31;;;;;;;0.57;0.57;;;21.30;59.20;;;;;;4962331;28;20188;-59
2023/03/19 10:24:58;;;;;;;0.00;0.00;;;21.30;58.30;;;;;;4955323;28;20196;-59
2023/03/19 10:27:27;;;;;;;0.00;0.00;;;21.10;57.80;;;;;;4955393;28;20177;-58
2023/03/19 10:29:53;;;;;;;0.00;0.00;;;21.20;58.30;;;;;;4955308;28;20537;-59
2023/03/19 10:32:37;;;;;;;0.00;0.00;;;21.50;60.60;;;;;;4955058;28;20185;-58
2023/03/19 10:35:16;;;;;;;0.00;0.00;;;21.70;58.80;;;;;;4955254;28;20173;-59
2023/03/19 10:37:42;;;;;;;0.00;0.00;;;22.00;58.20;;;;;;4955307;28;20580;-59
2023/03/19 10:40:33;;;;;;;0.00;0.00;;;22.30;57.10;;;;;;4955000;28;20232;-59
2023/03/19 10:43:21;;;;;;;0.00;0.00;;;22.60;56.60;;;;;;4959509;28;20173;-59
2023/03/19 10:45:48;;;;;;;0.00;0.00;;;22.50;55.70;;;;;;4993944;28;20243;-59
2023/03/19 10:48:16;;;;;;;0.00;0.00;;;22.30;56.00;;;;;;4993641;28;20262;-59
2023/03/19 10:50:56;;;;;;;0.00;0.00;;;22.30;55.60;;;;;;4993726;28;20207;-59
2023/03/19 10:53:38;;;;;;;0.00;0.00;;;22.20;56.40;;;;;;4993587;28;20175;-58
2023/03/19 10:56:21;;;;;;;0.00;0.00;;;22.30;55.70;;;;;;4993463;28;20209;-59
2023/03/19 10:59:19;;;;;;;0.00;0.00;;;22.10;55.30;;;;;;4993443;28;20236;-58
2023/03/19 11:01:45;;;;;;;0.00;0.00;;;21.70;55.70;;;;;;4993190;28;20286;-59
2023/03/19 11:04:17;;;;;;;0.00;0.00;;;21.40;57.30;;;;;;4978701;28;20255;-58
2023/03/19 11:06:48;;;;;;;0.05;0.05;;;21.40;57.80;;;;;;4968980;28;20176;-57
2023/03/19 11:09:22;;;;;;;0.00;0.00;;;21.60;58.40;;;;;;4973325;28;20661;-57
2023/03/19 11:11:52;;;;;;;0.00;0.00;;;21.70;57.30;;;;;;4972997;28;20627;-58
2023/03/19 11:14:23;;;;;;;0.00;0.00;;;21.40;56.60;;;;;;4972935;28;20190;-59
2023/03/19 11:17:04;;;;;;;0.00;0.00;;;21.40;57.90;;;;;;4963052;28;20222;-58
2023/03/19 11:19:40;;;;;;;0.00;0.00;;;21.50;56.80;;;;;;4972859;28;20227;-58
2023/03/19 11:22:11;;;;;;;0.00;0.00;;;21.70;57.20;;;;;;4972931;28;20176;-58
2023/03/19 11:24:41;;;;;;;0.00;0.00;;;21.50;56.30;;;;;;4971978;28;20188;-59
2023/03/19 11:27:08;;;;;;;0.00;0.00;;;21.20;57.20;;;;;;4955166;28;20181;-59
2023/03/19 11:29:41;;;;;;;0.00;0.00;;;21.40;58.10;;;;;;4954206;28;20169;-59
2023/03/19 11:32:15;;;;;;;0.00;0.00;;;21.70;56.80;;;;;;4953997;28;20809;-59
2023/03/19 11:34:43;;;;;;;0.00;0.00;;;22.10;56.10;;;;;;4954009;28;20187;-59
2023/03/19 11:37:31;;;;;;;0.00;0.00;;;22.50;55.70;;;;;;4955132;28;20177;-59
2023/03/19 11:40:30;;;;;;;0.00;0.00;;;22.10;55.70;;;;;;4973111;28;20306;-59
2023/03/19 11:43:22;;;;;;;0.00;0.00;;;21.90;56.70;;;;;;4975048;28;21040;-59
2023/03/19 11:46:09;;;;;;;0.00;0.00;;;21.60;57.00;;;;;;4992675;28;20263;-59
2023/03/19 11:49:05;;;;;;;0.00;0.00;;;21.50;56.30;;;;;;4987527;28;20589;-59
2023/03/19 11:51:31;;;;;;;0.05;0.05;;;21.40;57.30;;;;;;4973018;28;20180;-59
2023/03/19 11:54:16;;;;;;;0.00;0.00;;;21.30;56.40;;;;;;4972582;28;20212;-60
2023/03/19 11:56:47;;;;;;;0.00;0.00;;;21.30;56.20;;;;;;4973097;28;20187;-59
2023/03/19 11:59:43;;;;;;;0.00;0.00;;;21.10;57.20;;;;;;4972445;28;20219;-59
2023/03/19 12:02:12;;;;;;;0.00;0.00;;;20.60;57.80;;;;;;4971298;28;20203;-59
2023/03/19 12:04:53;;;;;;;0.00;0.00;;;20.40;58.60;;;;;;4964198;28;20659;-59
2023/03/19 12:08:01;;;;;;;0.00;0.00;;;20.20;59.40;;;;;;4953503;28;20183;-59
2023/03/19 12:10:51;;;;;;;0.00;0.00;;;20.10;59.80;;;;;;4944801;28;20188;-60
2023/03/19 12:13:35;;;;;;;0.00;0.00;;;20.10;59.40;;;;;;4952540;28;20683;-59
2023/03/19 12:16:19;;;;;;;0.00;0.00;;;20.00;59.30;;;;;;4970741;28;20180;-59
2023/03/19 12:19:11;;;;;;;0.10;0.10;;;20.00;59.70;;;;;;4970774;28;20230;-59
2023/03/19 12:21:57;;;;;;;0.00;0.00;;;19.70;59.60;;;;;;4972234;28;20195;-59
2023/03/19 12:24:44;;;;;;;0.00;0.00;;;19.40;60.30;;;;;;4972456;28;20172;-59
2023/03/19 12:27:37;;;;;;;0.00;0.00;;;19.10;62.50;;;;;;4972149;28;20600;-60
2023/03/19 12:30:17;;;;;;;0.00;0.00;;;18.70;64.60;;;;;;4971847;28;20238;-58
2023/03/19 12:33:07;;;;;;;0.00;0.00;;;18.50;66.60;;;;;;4972201;28;20184;-58
2023/03/19 12:35:35;;;;;;;0.00;0.00;;;18.30;67.00;;;;;;4972195;28;20180;-59
2023/03/19 12:38:26;;;;;;;0.10;0.10;;;18.20;67.80;;;;;;4972076;28;20252;-59
2023/03/19 12:40:58;;;;;;;0.00;0.00;;;18.10;69.90;;;;;;4972206;28;20176;-59
2023/03/19 12:43:24;;;;;;;0.00;0.00;;;18.10;69.90;;;;;;4975888;28;20269;-59
2023/03/19 12:46:05;;;;;;;0.00;0.00;;;18.10;69.80;;;;;;4971983;28;20755;-60
2023/03/19 12:48:40;;;;;;;0.00;0.00;;;18.10;69.50;;;;;;4961869;28;20534;-58
2023/03/19 12:51:11;;;;;;;0.00;0.00;;;18.20;68.50;;;;;;4969474;28;20656;-58
2023/03/19 12:53:47;;;;;;;0.00;0.00;;;18.30;67.70;;;;;;4969510;28;20223;-59
2023/03/19 12:56:37;;;;;;;0.15;0.15;;;18.30;67.90;;;;;;4969421;28;20176;-58
2023/03/19 12:59:23;;;;;;;0.00;0.00;;;18.40;67.80;;;;;;4971900;28;20219;-58
2023/03/19 13:02:02;;;;;;;0.00;0.00;;;18.40;67.30;;;;;;4953853;28;20243;-58